Time;durP1;ratioP1;P1;durP2;ratioP2;P2;SDS_P1;SDS_P2;PMS_P1;PMS_P2;Temp;Humidity;BMP_temperature;BMP_pressure;BME280_temperature;BME280_humidity;BME280_pressure;Samples;Min_cycle;Max_cycle;Signal;HPM_P1;HPM_P2
2024/01/20 00:00:59;;;;;;;5.15;2.50;;;;;;;-147.63;100.00;58384.75;5055624;28;20190;-46
2024/01/20 00:03:25;;;;;;;5.07;2.65;;;;;;;-147.63;100.00;58384.75;5076462;28;20050;-44
2024/01/20 00:05:50;;;;;;;5.78;3.35;;;;;;;-147.63;100.00;58384.75;5080107;28;20410;-44
2024/01/20 00:08:16;;;;;;;5.22;2.67;;;;;;;-147.63;100.00;58384.75;5074073;28;20040;-44
2024/01/20 00:10:41;;;;;;;4.97;2.80;;;;;;;-147.63;100.00;58384.75;5071755;28;20028;-44
2024/01/20 00:13:06;;;;;;;4.85;2.58;;;;;;;-147.63;100.00;58384.75;5074940;28;20051;-48
2024/01/20 00:15:32;;;;;;;5.72;2.67;;;;;;;-147.63;100.00;58384.75;5081398;28;20124;-45
2024/01/20 00:17:57;;;;;;;7.68;3.08;;;;;;;-147.63;100.00;58384.75;5054682;28;20036;-46
2024/01/20 00:20:23;;;;;;;5.47;2.97;;;;;;;-147.63;100.00;58384.75;5070636;28;20050;-46
2024/01/20 00:22:49;;;;;;;9.02;3.50;;;;;;;-147.63;100.00;58384.75;5054331;28;20040;-44
2024/01/20 00:25:15;;;;;;;6.28;2.42;;;;;;;-147.63;100.00;58384.75;5084811;28;20043;-43
2024/01/20 00:27:40;;;;;;;9.35;2.60;;;;;;;-147.63;100.00;58384.75;5086416;28;20591;-46
2024/01/20 00:30:06;;;;;;;4.82;2.72;;;;;;;-147.63;100.00;58384.75;5085250;28;20036;-47
2024/01/20 00:32:31;;;;;;;3.13;2.65;;;;;;;-147.63;100.00;58384.75;5073429;28;20031;-46
2024/01/20 00:34:57;;;;;;;5.10;2.70;;;;;;;-147.63;100.00;58384.75;5070470;28;20530;-47
2024/01/20 00:37:22;;;;;;;4.95;3.08;;;;;;;-147.63;100.00;58384.75;5064723;28;20028;-47
2024/01/20 00:39:47;;;;;;;5.53;2.97;;;;;;;-147.63;100.00;58384.75;5081522;28;20036;-45
2024/01/20 00:42:13;;;;;;;6.38;3.00;;;;;;;-147.63;100.00;58384.75;5084508;28;20028;-46
2024/01/20 00:44:40;;;;;;;4.90;2.50;;;;;;;-147.63;100.00;58384.75;5085160;28;20027;-49
2024/01/20 00:47:06;;;;;;;6.00;3.00;;;;;;;-147.63;100.00;58384.75;5083608;28;20056;-47
2024/01/20 00:49:31;;;;;;;6.30;2.92;;;;;;;-147.63;100.00;58384.75;5084744;28;20057;-47
2024/01/20 00:51:56;;;;;;;4.07;2.83;;;;;;;-147.63;100.00;58384.75;5084923;28;20026;-50
2024/01/20 00:54:22;;;;;;;5.22;2.85;;;;;;;-147.63;100.00;58384.75;5084151;28;20161;-45
2024/01/20 00:56:48;;;;;;;4.43;2.70;;;;;;;-147.63;100.00;58384.75;5082515;28;20081;-48
2024/01/20 00:59:13;;;;;;;4.93;2.80;;;;;;;-147.63;100.00;58384.75;5078111;28;20468;-47
2024/01/20 01:01:38;;;;;;;5.95;3.38;;;;;;;-147.63;100.00;58384.75;5076377;28;20059;-46
2024/01/20 01:04:04;;;;;;;4.80;2.90;;;;;;;-147.63;100.00;58384.75;5077705;28;20035;-45
2024/01/20 01:06:29;;;;;;;6.85;3.17;;;;;;;-147.63;100.00;58384.75;5077501;28;20397;-47
2024/01/20 01:08:54;;;;;;;5.05;3.38;;;;;;;-147.63;100.00;58384.75;5072218;28;20442;-47
2024/01/20 01:11:20;;;;;;;5.05;3.28;;;;;;;-147.63;100.00;58384.75;5084834;28;20119;-42
2024/01/20 01:13:45;;;;;;;4.53;2.97;;;;;;;-147.63;100.00;58384.75;5082274;28;20024;-43
2024/01/20 01:16:10;;;;;;;5.15;3.30;;;;;;;-147.63;100.00;58384.75;5078440;28;20045;-47
2024/01/20 01:18:36;;;;;;;4.18;3.10;;;;;;;-147.63;100.00;58384.75;5083855;28;20031;-47
2024/01/20 01:21:01;;;;;;;6.40;3.28;;;;;;;-147.63;100.00;58384.75;5060431;28;20036;-46
2024/01/20 01:23:26;;;;;;;4.30;3.10;;;;;;;-147.63;100.00;58384.75;5097062;28;20036;-48
2024/01/20 01:25:53;;;;;;;6.20;3.60;;;;;;;-147.63;100.00;58384.75;5081807;28;20461;-44
2024/01/20 01:28:19;;;;;;;7.75;3.45;;;;;;;-147.63;100.00;58384.75;5088545;28;20430;-45
2024/01/20 01:30:47;;;;;;;5.28;3.20;;;;;;;-147.63;100.00;58384.75;5059984;28;20028;-47
2024/01/20 01:33:13;;;;;;;5.90;3.38;;;;;;;-147.63;100.00;58384.75;5070105;28;20056;-46
2024/01/20 01:35:38;;;;;;;3.83;3.03;;;;;;;-147.63;100.00;58384.75;5077539;28;20070;-45
2024/01/20 01:38:04;;;;;;;4.65;2.90;;;;;;;-147.63;100.00;58384.75;5075228;28;20028;-46
2024/01/20 01:40:29;;;;;;;3.90;2.85;;;;;;;-147.63;100.00;58384.75;5080839;28;20162;-44
2024/01/20 01:42:57;;;;;;;4.15;2.88;;;;;;;-147.63;100.00;58384.75;5068770;28;20024;-42
2024/01/20 01:45:25;;;;;;;4.45;2.97;;;;;;;-147.63;100.00;58384.75;5076850;28;20540;-44
2024/01/20 01:47:52;;;;;;;3.42;2.60;;;;;;;-147.63;100.00;58384.75;5066093;28;20077;-43
2024/01/20 01:50:18;;;;;;;6.07;3.22;;;;;;;-147.63;100.00;58384.75;5065877;28;20436;-44
2024/01/20 01:52:44;;;;;;;5.40;3.20;;;;;;;-147.63;100.00;58384.75;5062587;28;20012;-45
2024/01/20 01:55:09;;;;;;;4.93;3.15;;;;;;;-147.63;100.00;58384.75;5063709;28;20381;-45
2024/01/20 01:57:35;;;;;;;5.05;3.33;;;;;;;-147.63;100.00;58384.75;5058606;28;20035;-49
2024/01/20 02:00:02;;;;;;;5.40;3.95;;;;;;;-147.63;100.00;58384.75;5077602;28;20020;-46
2024/01/20 02:02:27;;;;;;;5.43;3.60;;;;;;;-147.63;100.00;58384.75;5074208;28;20030;-44
2024/01/20 02:04:53;;;;;;;6.53;4.18;;;;;;;-147.63;100.00;58384.75;5074617;28;20032;-46
2024/01/20 02:07:19;;;;;;;5.15;3.60;;;;;;;-147.63;100.00;58384.75;5082861;28;20028;-43
2024/01/20 02:09:46;;;;;;;6.72;3.72;;;;;;;-147.63;100.00;58384.75;5056539;28;20024;-45
2024/01/20 02:12:13;;;;;;;5.43;3.45;;;;;;;-147.63;100.00;58384.75;5057019;28;20560;-47
2024/01/20 02:14:38;;;;;;;6.32;3.85;;;;;;;-147.63;100.00;58384.75;5071164;28;20074;-45
2024/01/20 02:17:05;;;;;;;5.47;3.60;;;;;;;-147.63;100.00;58384.75;5061965;28;20458;-47
2024/01/20 02:19:36;;;;;;;7.18;4.00;;;;;;;-147.63;100.00;58384.75;5078526;28;20035;-46
2024/01/20 02:22:08;;;;;;;6.47;3.60;;;;;;;-147.63;100.00;58384.75;5079107;28;20028;-48
2024/01/20 02:24:35;;;;;;;6.03;3.45;;;;;;;-147.63;100.00;58384.75;5078436;28;20252;-47
2024/01/20 02:27:00;;;;;;;5.15;3.60;;;;;;;-147.63;100.00;58384.75;5081265;28;20020;-47
2024/01/20 02:29:26;;;;;;;7.07;3.50;;;;;;;-147.63;100.00;58384.75;5082786;28;20054;-48
2024/01/20 02:31:51;;;;;;;5.45;3.67;;;;;;;-147.63;100.00;58384.75;5077345;28;20107;-48
2024/01/20 02:34:16;;;;;;;7.60;3.95;;;;;;;-147.63;100.00;58384.75;5074364;28;20059;-49
2024/01/20 02:36:42;;;;;;;6.60;3.60;;;;;;;-147.63;100.00;58384.75;5074617;28;20048;-49
2024/01/20 02:39:07;;;;;;;6.72;3.50;;;;;;;-147.63;100.00;58384.75;5080565;28;20051;-47
2024/01/20 02:41:35;;;;;;;6.43;3.47;;;;;;;-147.63;100.00;58384.75;5083889;28;20520;-43
2024/01/20 02:44:01;;;;;;;5.85;3.78;;;;;;;-147.63;100.00;58384.75;5083905;28;20455;-44
2024/01/20 02:46:26;;;;;;;5.07;3.28;;;;;;;-147.63;100.00;58384.75;5082573;28;20295;-44
2024/01/20 02:48:52;;;;;;;6.82;4.15;;;;;;;-147.63;100.00;58384.75;5082824;28;20032;-45
2024/01/20 02:51:17;;;;;;;5.97;4.00;;;;;;;-147.63;100.00;58384.75;5084548;28;20020;-44
2024/01/20 02:53:42;;;;;;;5.72;3.65;;;;;;;-147.63;100.00;58384.75;5082084;28;20047;-50
2024/01/20 02:56:08;;;;;;;6.88;3.78;;;;;;;-147.63;100.00;58384.75;5062835;28;20523;-46
2024/01/20 02:58:33;;;;;;;6.72;4.20;;;;;;;-147.63;100.00;58384.75;5083017;28;20030;-48
2024/01/20 03:01:00;;;;;;;7.88;4.20;;;;;;;-147.63;100.00;58384.75;5080477;28;20447;-46
2024/01/20 03:03:26;;;;;;;6.78;3.80;;;;;;;-147.63;100.00;58384.75;5076417;28;20032;-45
2024/01/20 03:05:51;;;;;;;8.75;4.05;;;;;;;-147.63;100.00;58384.75;5070727;28;20058;-44
2024/01/20 03:08:17;;;;;;;8.20;3.60;;;;;;;-147.63;100.00;58384.75;5072262;28;20149;-47
2024/01/20 03:10:42;;;;;;;7.15;4.18;;;;;;;-147.63;100.00;58384.75;5076260;28;20016;-45
2024/01/20 03:13:08;;;;;;;5.20;3.47;;;;;;;-147.63;100.00;58384.75;5078522;28;20040;-45
2024/01/20 03:15:33;;;;;;;6.78;3.53;;;;;;;-147.63;100.00;58384.75;5074640;28;20573;-44
2024/01/20 03:17:58;;;;;;;5.35;3.38;;;;;;;-147.63;100.00;58384.75;5081850;28;20476;-44
2024/01/20 03:20:24;;;;;;;6.10;3.33;;;;;;;-147.63;100.00;58384.75;5078488;28;20039;-45
2024/01/20 03:22:49;;;;;;;6.93;3.80;;;;;;;-147.63;100.00;58384.75;5081521;28;20032;-44
2024/01/20 03:25:14;;;;;;;5.53;3.45;;;;;;;-147.63;100.00;58384.75;5073549;28;20114;-45
2024/01/20 03:27:40;;;;;;;4.93;3.20;;;;;;;-147.63;100.00;58384.75;5082963;28;20388;-44
2024/01/20 03:30:06;;;;;;;4.65;3.20;;;;;;;-147.63;100.00;58384.75;5053257;28;20082;-44
2024/01/20 03:32:31;;;;;;;5.55;3.53;;;;;;;-147.63;100.00;58384.75;5074056;28;20389;-45
2024/01/20 03:34:57;;;;;;;6.13;3.60;;;;;;;-147.63;100.00;58384.75;5071930;28;20028;-46
2024/01/20 03:37:22;;;;;;;6.32;4.35;;;;;;;-147.63;100.00;58384.75;5068737;28;20040;-43
2024/01/20 03:39:47;;;;;;;6.93;4.30;;;;;;;-147.63;100.00;58384.75;5055814;28;21212;-43
2024/01/20 03:42:13;;;;;;;6.65;3.80;;;;;;;-147.63;100.00;58384.75;5074671;28;20024;-45
2024/01/20 03:44:38;;;;;;;5.70;3.50;;;;;;;-147.63;100.00;58384.75;5078191;28;20057;-45
2024/01/20 03:47:04;;;;;;;6.65;3.55;;;;;;;-147.63;100.00;58384.75;5059352;28;20036;-45
2024/01/20 03:49:29;;;;;;;7.32;3.63;;;;;;;-147.63;100.00;58384.75;5075187;28;20027;-44
2024/01/20 03:51:55;;;;;;;4.25;3.47;;;;;;;-147.63;100.00;58384.75;5077824;28;20081;-49
2024/01/20 03:54:21;;;;;;;5.15;3.72;;;;;;;-147.63;100.00;58384.75;5073956;28;20524;-48
2024/01/20 03:56:46;;;;;;;5.70;3.38;;;;;;;-147.63;100.00;58384.75;5052844;28;20260;-46
2024/01/20 03:59:12;;;;;;;5.32;3.25;;;;;;;-147.63;100.00;58384.75;5074919;28;20040;-45
2024/01/20 04:01:39;;;;;;;6.18;3.78;;;;;;;-147.63;100.00;58384.75;5078976;28;20044;-46
2024/01/20 04:04:05;;;;;;;4.55;3.28;;;;;;;-147.63;100.00;58384.75;5074146;28;20029;-46
2024/01/20 04:06:33;;;;;;;6.82;3.70;;;;;;;-147.63;100.00;58384.75;5081805;28;20036;-48
2024/01/20 04:08:58;;;;;;;5.53;3.17;;;;;;;-147.63;100.00;58384.75;5078721;28;20592;-46
2024/01/20 04:11:24;;;;;;;5.10;3.42;;;;;;;-147.63;100.00;58384.75;5075289;28;20179;-47
2024/01/20 04:13:49;;;;;;;5.55;3.40;;;;;;;-147.63;100.00;58384.75;5085948;28;20020;-46
2024/01/20 04:16:14;;;;;;;5.07;3.10;;;;;;;-147.63;100.00;58384.75;5072057;28;20041;-46
2024/01/20 04:18:40;;;;;;;4.95;3.22;;;;;;;-147.63;100.00;58384.75;5086653;28;20157;-46
2024/01/20 04:21:05;;;;;;;4.45;2.97;;;;;;;-147.63;100.00;58384.75;5083855;28;20226;-47
2024/01/20 04:23:31;;;;;;;5.10;3.17;;;;;;;-147.63;100.00;58384.75;5080279;28;20020;-46
2024/01/20 04:25:56;;;;;;;5.53;3.15;;;;;;;-147.63;100.00;58384.75;5077963;28;20384;-47
2024/01/20 04:28:21;;;;;;;4.93;3.13;;;;;;;-147.63;100.00;58384.75;5085167;28;20106;-46
2024/01/20 04:30:47;;;;;;;4.20;3.00;;;;;;;-147.63;100.00;58384.75;5066207;28;20031;-44
2024/01/20 04:33:12;;;;;;;5.20;3.38;;;;;;;-147.63;100.00;58384.75;5086433;28;20085;-44
2024/01/20 04:35:37;;;;;;;4.35;3.05;;;;;;;-147.63;100.00;58384.75;5081768;28;20024;-46
2024/01/20 04:38:03;;;;;;;4.90;3.17;;;;;;;-147.63;100.00;58384.75;5079311;28;20035;-44
2024/01/20 04:40:29;;;;;;;3.97;3.13;;;;;;;-147.63;100.00;58384.75;5074955;28;20035;-43
2024/01/20 04:42:54;;;;;;;4.85;3.13;;;;;;;-147.63;100.00;58384.75;5077349;28;20025;-44
2024/01/20 04:45:20;;;;;;;5.47;3.25;;;;;;;-147.63;100.00;58384.75;5082913;28;20054;-44
2024/01/20 04:47:45;;;;;;;6.07;3.22;;;;;;;-147.63;100.00;58384.75;5079741;28;20020;-46
2024/01/20 04:50:11;;;;;;;7.07;3.38;;;;;;;-147.63;100.00;58384.75;5076733;28;20043;-44
2024/01/20 04:52:37;;;;;;;4.50;3.05;;;;;;;-147.63;100.00;58384.75;5079268;28;20032;-43
2024/01/20 04:55:02;;;;;;;4.05;2.88;;;;;;;-147.63;100.00;58384.75;5079828;28;20112;-48
2024/01/20 04:57:28;;;;;;;4.68;3.22;;;;;;;-147.63;100.00;58384.75;5059355;28;20024;-45
2024/01/20 04:59:53;;;;;;;15.25;3.40;;;;;;;-147.63;100.00;58384.75;5075843;28;20089;-44
2024/01/20 05:02:19;;;;;;;5.85;3.58;;;;;;;-147.63;100.00;58384.75;5081902;28;20105;-45
2024/01/20 05:04:44;;;;;;;4.95;3.25;;;;;;;-147.63;100.00;58384.75;5080521;28;20165;-45
2024/01/20 05:07:10;;;;;;;6.65;2.75;;;;;;;-147.63;100.00;58384.75;5064275;28;20021;-48
2024/01/20 05:09:35;;;;;;;5.05;2.92;;;;;;;-147.63;100.00;58384.75;5080398;28;20058;-48
2024/01/20 05:12:01;;;;;;;5.53;3.40;;;;;;;-147.63;100.00;58384.75;5083986;28;20024;-45
2024/01/20 05:14:26;;;;;;;4.78;2.67;;;;;;;-147.63;100.00;58384.75;5067182;28;20035;-45
2024/01/20 05:16:51;;;;;;;4.55;2.45;;;;;;;-147.63;100.00;58384.75;5069404;28;20081;-45
2024/01/20 05:19:17;;;;;;;4.50;2.60;;;;;;;-147.63;100.00;58384.75;5075706;28;20028;-44
2024/01/20 05:21:43;;;;;;;3.75;2.42;;;;;;;-147.63;100.00;58384.75;5071379;28;20024;-45
2024/01/20 05:24:10;;;;;;;4.20;2.60;;;;;;;-147.63;100.00;58384.75;5084824;28;20173;-48
2024/01/20 05:26:35;;;;;;;6.78;2.40;;;;;;;-147.63;100.00;58384.75;5051106;28;20390;-49
2024/01/20 05:29:00;;;;;;;3.97;2.55;;;;;;;-147.63;100.00;58384.75;5074762;28;20037;-49
2024/01/20 05:31:31;;;;;;;3.60;2.70;;;;;;;-147.63;100.00;58384.75;5077109;28;20158;-47
2024/01/20 05:33:57;;;;;;;6.22;2.85;;;;;;;-147.63;100.00;58384.75;5066683;28;20032;-49
2024/01/20 05:36:22;;;;;;;3.28;2.60;;;;;;;-147.63;100.00;58384.75;5087101;28;20487;-47
2024/01/20 05:38:48;;;;;;;3.45;2.45;;;;;;;-147.63;100.00;58384.75;5073542;28;20028;-48
2024/01/20 05:41:14;;;;;;;4.22;2.88;;;;;;;-147.63;100.00;58384.75;5079894;28;20040;-44
2024/01/20 05:43:39;;;;;;;4.35;2.60;;;;;;;-147.63;100.00;58384.75;5079213;28;20064;-49
2024/01/20 05:46:06;;;;;;;3.95;2.20;;;;;;;-147.63;100.00;58384.75;5087172;28;20036;-45
2024/01/20 05:48:33;;;;;;;3.88;2.22;;;;;;;-147.63;100.00;58384.75;5079139;28;20485;-45
2024/01/20 05:50:58;;;;;;;2.95;2.35;;;;;;;-147.63;100.00;58384.75;5075965;28;20028;-48
2024/01/20 05:53:23;;;;;;;3.60;2.53;;;;;;;-147.63;100.00;58384.75;5084489;28;20315;-48
2024/01/20 05:55:49;;;;;;;2.92;2.00;;;;;;;-147.63;100.00;58384.75;5066256;28;20034;-48
2024/01/20 05:58:14;;;;;;;5.30;2.53;;;;;;;-147.63;100.00;58384.75;5084497;28;20035;-48
2024/01/20 06:00:40;;;;;;;3.30;2.10;;;;;;;-147.63;100.00;58384.75;5086280;28;20032;-47
2024/01/20 06:03:06;;;;;;;4.47;2.50;;;;;;;-147.63;100.00;58384.75;5086210;28;20412;-49
2024/01/20 06:05:31;;;;;;;3.55;2.70;;;;;;;-147.63;100.00;58384.75;5080610;28;20028;-48
2024/01/20 06:07:57;;;;;;;3.80;2.50;;;;;;;-147.63;100.00;58384.75;5085210;28;20020;-52
2024/01/20 06:10:22;;;;;;;3.65;2.30;;;;;;;-147.63;100.00;58384.75;5076837;28;20535;-47
2024/01/20 06:12:48;;;;;;;3.38;2.20;;;;;;;-147.63;100.00;58384.75;5080318;28;20050;-47
2024/01/20 06:15:13;;;;;;;3.92;2.45;;;;;;;-147.63;100.00;58384.75;5084431;28;20374;-45
2024/01/20 06:17:38;;;;;;;2.60;2.15;;;;;;;-147.63;100.00;58384.75;5074125;28;20052;-45
2024/01/20 06:20:05;;;;;;;3.95;2.72;;;;;;;-147.63;100.00;58384.75;5085420;28;20606;-45
2024/01/20 06:22:31;;;;;;;3.90;2.45;;;;;;;-147.63;100.00;58384.75;5045781;28;20456;-53
2024/01/20 06:24:56;;;;;;;3.83;2.28;;;;;;;-147.63;100.00;58384.75;5084699;28;20057;-49
2024/01/20 06:27:22;;;;;;;3.65;2.08;;;;;;;-147.63;100.00;58384.75;5078869;28;20416;-48
2024/01/20 06:29:48;;;;;;;3.50;2.50;;;;;;;-147.63;100.00;58384.75;5084543;28;20019;-52
2024/01/20 06:32:13;;;;;;;3.13;2.50;;;;;;;-147.63;100.00;58384.75;5073917;28;20104;-47
2024/01/20 06:34:39;;;;;;;3.85;2.53;;;;;;;-147.63;100.00;58384.75;5077559;28;20331;-44
2024/01/20 06:37:04;;;;;;;4.30;2.45;;;;;;;-147.63;100.00;58384.75;5077341;28;20036;-43
2024/01/20 06:39:30;;;;;;;3.10;2.15;;;;;;;-147.63;100.00;58384.75;5083776;28;20050;-46
2024/01/20 06:41:55;;;;;;;3.30;2.40;;;;;;;-147.63;100.00;58384.75;5067994;28;20385;-45
2024/01/20 06:44:22;;;;;;;4.30;2.75;;;;;;;-147.63;100.00;58384.75;5077850;28;20111;-45
2024/01/20 06:46:48;;;;;;;3.40;2.53;;;;;;;-147.63;100.00;58384.75;5076062;28;20059;-48
2024/01/20 06:49:14;;;;;;;4.15;2.50;;;;;;;-147.63;100.00;58384.75;5074263;28;20488;-51
2024/01/20 06:51:42;;;;;;;2.72;1.92;;;;;;;-147.63;100.00;58384.75;5075690;28;20433;-45
2024/01/20 06:54:07;;;;;;;3.42;2.42;;;;;;;-147.63;100.00;58384.75;5078718;28;20015;-45
2024/01/20 06:56:33;;;;;;;3.60;2.40;;;;;;;-147.63;100.00;58384.75;5082927;28;20370;-46
2024/01/20 06:58:59;;;;;;;5.70;2.47;;;;;;;-147.63;100.00;58384.75;5075427;28;20024;-43
2024/01/20 07:01:25;;;;;;;4.60;2.38;;;;;;;-147.63;100.00;58384.75;5075886;28;20054;-45
2024/01/20 07:03:50;;;;;;;4.20;2.40;;;;;;;-147.63;100.00;58384.75;5077815;28;20031;-48
2024/01/20 07:06:15;;;;;;;4.00;2.38;;;;;;;-147.63;100.00;58384.75;5083674;28;20519;-47
2024/01/20 07:08:42;;;;;;;4.85;2.60;;;;;;;-147.63;100.00;58384.75;5072869;28;20028;-45
2024/01/20 07:11:09;;;;;;;3.58;2.20;;;;;;;-147.63;100.00;58384.75;5079253;28;20031;-45
2024/01/20 07:13:35;;;;;;;3.42;2.33;;;;;;;-147.63;100.00;58384.75;5075489;28;20051;-46
2024/01/20 07:16:11;;;;;;;2.55;2.10;;;;;;;-147.63;100.00;58384.75;5077260;28;20036;-44
2024/01/20 07:18:37;;;;;;;4.40;2.40;;;;;;;-147.63;100.00;58384.75;5074344;28;20461;-44
2024/01/20 07:21:03;;;;;;;2.90;2.30;;;;;;;-147.63;100.00;58384.75;5080630;28;20107;-44
2024/01/20 07:23:29;;;;;;;3.47;2.33;;;;;;;-147.63;100.00;58384.75;5082117;28;20471;-47
2024/01/20 07:25:55;;;;;;;4.63;2.90;;;;;;;-147.63;100.00;58384.75;5082805;28;20043;-48
2024/01/20 07:28:20;;;;;;;4.85;2.85;;;;;;;-147.63;100.00;58384.75;5079788;28;20013;-48
2024/01/20 07:30:46;;;;;;;6.18;2.30;;;;;;;-147.63;100.00;58384.75;5083158;28;20028;-46
2024/01/20 07:33:12;;;;;;;5.10;2.53;;;;;;;-147.63;100.00;58384.75;5077619;28;20036;-45
2024/01/20 07:35:37;;;;;;;3.45;2.47;;;;;;;-147.63;100.00;58384.75;5075334;28;20449;-46
2024/01/20 07:38:03;;;;;;;3.75;2.47;;;;;;;-147.63;100.00;58384.75;5069499;28;20672;-45
2024/01/20 07:40:29;;;;;;;4.03;2.72;;;;;;;-147.63;100.00;58384.75;5075947;28;20031;-46
2024/01/20 07:42:54;;;;;;;3.78;2.33;;;;;;;-147.63;100.00;58384.75;5087028;28;20019;-46
2024/01/20 07:45:20;;;;;;;4.10;2.67;;;;;;;-147.63;100.00;58384.75;5086055;28;20488;-45
2024/01/20 07:47:47;;;;;;;3.40;2.30;;;;;;;-147.63;100.00;58384.75;5091359;28;20118;-47
2024/01/20 07:50:12;;;;;;;3.90;2.60;;;;;;;-147.63;100.00;58384.75;5078760;28;20429;-47
2024/01/20 07:52:38;;;;;;;4.25;2.38;;;;;;;-147.63;100.00;58384.75;5081081;28;20099;-48
2024/01/20 07:55:04;;;;;;;4.13;2.72;;;;;;;-147.63;100.00;58384.75;5083231;28;20039;-45
2024/01/20 07:57:29;;;;;;;4.70;2.63;;;;;;;-147.63;100.00;58384.75;5076537;28;20020;-44
2024/01/20 07:59:55;;;;;;;3.95;2.47;;;;;;;-147.63;100.00;58384.75;5084427;28;20058;-47
2024/01/20 08:02:20;;;;;;;5.57;2.80;;;;;;;-147.63;100.00;58384.75;5086060;28;20081;-48
2024/01/20 08:04:45;;;;;;;3.17;2.17;;;;;;;-147.63;100.00;58384.75;5079196;28;20035;-47
2024/01/20 08:07:11;;;;;;;3.45;2.35;;;;;;;-147.63;100.00;58384.75;5078181;28;20115;-43
2024/01/20 08:09:36;;;;;;;3.70;2.30;;;;;;;-147.63;100.00;58384.75;5082263;28;20032;-47
2024/01/20 08:12:02;;;;;;;3.90;2.25;;;;;;;-147.63;100.00;58384.75;5083365;28;20577;-48
2024/01/20 08:14:27;;;;;;;3.83;2.40;;;;;;;-147.63;100.00;58384.75;5085642;28;20023;-45
2024/01/20 08:16:52;;;;;;;3.72;2.47;;;;;;;-147.63;100.00;58384.75;5081633;28;20040;-45
2024/01/20 08:19:18;;;;;;;5.07;2.75;;;;;;;-147.63;100.00;58384.75;5078301;28;20111;-45
2024/01/20 08:21:43;;;;;;;7.00;2.55;;;;;;;-147.63;100.00;58384.75;5076732;28;20467;-46
2024/01/20 08:24:09;;;;;;;4.22;2.40;;;;;;;-147.63;100.00;58384.75;5064647;28;20408;-46
2024/01/20 08:26:34;;;;;;;3.65;2.33;;;;;;;-147.63;100.00;58384.75;5080839;28;20103;-44
2024/01/20 08:28:59;;;;;;;2.80;2.25;;;;;;;-147.63;100.00;58384.75;5085435;28;20465;-44
2024/01/20 08:31:25;;;;;;;3.22;2.15;;;;;;;-147.63;100.00;58384.75;5073238;28;20028;-45
2024/01/20 08:33:50;;;;;;;3.63;2.60;;;;;;;-147.63;100.00;58384.75;5079106;28;20032;-45
2024/01/20 08:36:16;;;;;;;3.30;2.35;;;;;;;-147.63;100.00;58384.75;5081185;28;20039;-46
2024/01/20 08:38:41;;;;;;;3.08;2.38;;;;;;;-147.63;100.00;58384.75;5085712;28;20081;-45
2024/01/20 08:41:08;;;;;;;4.82;2.60;;;;;;;-147.63;100.00;58384.75;5068036;28;20270;-47
2024/01/20 08:43:35;;;;;;;4.78;3.13;;;;;;;-147.63;100.00;58384.75;5073806;28;20020;-46
2024/01/20 08:46:01;;;;;;;3.75;2.80;;;;;;;-147.63;100.00;58384.75;5076075;28;20071;-44
2024/01/20 08:48:29;;;;;;;3.58;2.67;;;;;;;-147.63;100.00;58384.75;5080380;28;20031;-45
2024/01/20 08:50:54;;;;;;;5.22;2.80;;;;;;;-147.63;100.00;58384.75;5085309;28;20737;-47
2024/01/20 08:53:20;;;;;;;3.70;2.55;;;;;;;-147.63;100.00;58384.75;5050503;28;20304;-44
2024/01/20 08:55:45;;;;;;;4.00;2.78;;;;;;;-147.63;100.00;58384.75;5067839;28;20154;-46
2024/01/20 08:58:10;;;;;;;4.90;2.50;;;;;;;-147.63;100.00;58384.75;5083067;28;20051;-46
2024/01/20 09:00:36;;;;;;;4.82;2.55;;;;;;;-147.63;100.00;58384.75;5079713;28;20508;-49
2024/01/20 09:03:01;;;;;;;4.97;3.15;;;;;;;-147.63;100.00;58384.75;5071486;28;20118;-46
2024/01/20 09:05:27;;;;;;;6.13;2.50;;;;;;;-147.63;100.00;58384.75;5080034;28;20036;-45
2024/01/20 09:07:52;;;;;;;4.10;2.95;;;;;;;-147.63;100.00;58384.75;5073389;28;20069;-49
2024/01/20 09:10:18;;;;;;;7.65;2.78;;;;;;;-147.63;100.00;58384.75;5055246;28;20020;-47
2024/01/20 09:12:43;;;;;;;4.90;3.15;;;;;;;-147.63;100.00;58384.75;5082089;28;20729;-44
2024/01/20 09:15:10;;;;;;;4.57;2.60;;;;;;;-147.63;100.00;58384.75;5082477;28;20295;-45
2024/01/20 09:17:35;;;;;;;3.50;2.67;;;;;;;-147.63;100.00;58384.75;5083393;28;20083;-46
2024/01/20 09:20:00;;;;;;;4.00;2.40;;;;;;;-147.63;100.00;58384.75;5082894;28;20050;-46
2024/01/20 09:22:26;;;;;;;3.65;2.33;;;;;;;-147.63;100.00;58384.75;5065260;28;20035;-46
2024/01/20 09:24:52;;;;;;;3.55;2.42;;;;;;;-147.63;100.00;58384.75;5068793;28;20020;-49
2024/01/20 09:27:17;;;;;;;5.53;3.10;;;;;;;-147.63;100.00;58384.75;5072589;28;20099;-47
2024/01/20 09:29:43;;;;;;;6.45;3.20;;;;;;;-147.63;100.00;58384.75;5071291;28;20107;-46
2024/01/20 09:32:09;;;;;;;4.68;2.72;;;;;;;-147.63;100.00;58384.75;5083444;28;20499;-45
2024/01/20 09:34:34;;;;;;;6.43;2.55;;;;;;;-147.63;100.00;58384.75;5077100;28;20051;-46
2024/01/20 09:36:59;;;;;;;4.78;2.63;;;;;;;-147.63;100.00;58384.75;5073142;28;20107;-43
2024/01/20 09:39:25;;;;;;;4.53;2.75;;;;;;;-147.63;100.00;58384.75;5056913;28;20054;-44
2024/01/20 09:41:51;;;;;;;5.13;2.38;;;;;;;-147.63;100.00;58384.75;5061015;28;20104;-44
2024/01/20 09:44:16;;;;;;;5.38;2.55;;;;;;;-147.63;100.00;58384.75;5080883;28;20068;-44
2024/01/20 09:46:43;;;;;;;4.95;2.65;;;;;;;-147.63;100.00;58384.75;5084815;28;20024;-45
2024/01/20 09:49:08;;;;;;;9.32;2.67;;;;;;;-147.63;100.00;58384.75;5065842;28;20500;-44
2024/01/20 09:51:35;;;;;;;5.43;2.97;;;;;;;-147.63;100.00;58384.75;5067547;28;20444;-44
2024/01/20 09:54:00;;;;;;;4.32;2.33;;;;;;;-147.63;100.00;58384.75;5079348;28;20042;-45
2024/01/20 09:56:27;;;;;;;5.68;2.90;;;;;;;-147.63;100.00;58384.75;5059964;28;20036;-43
2024/01/20 09:59:03;;;;;;;4.75;2.40;;;;;;;-147.63;100.00;58384.75;5050600;28;20096;-43
2024/01/20 10:01:29;;;;;;;5.13;2.15;;;;;;;-147.63;100.00;58384.75;5060541;28;20030;-43
2024/01/20 10:03:58;;;;;;;6.13;2.30;;;;;;;-147.63;100.00;58384.75;5040906;28;20106;-46
2024/01/20 10:06:24;;;;;;;6.22;2.45;;;;;;;-147.63;100.00;58384.75;5033389;28;20031;-45
2024/01/20 10:08:50;;;;;;;3.83;2.30;;;;;;;-147.63;100.00;58384.75;5079370;28;20516;-46
2024/01/20 10:11:15;;;;;;;6.00;2.75;;;;;;;-147.63;100.00;58384.75;5071933;28;20099;-43
2024/01/20 10:13:41;;;;;;;4.38;2.28;;;;;;;-147.63;100.00;58384.75;5062609;28;20034;-43
2024/01/20 10:16:07;;;;;;;3.92;2.20;;;;;;;-147.63;100.00;58384.75;5081728;28;20075;-46
2024/01/20 10:18:33;;;;;;;3.13;1.75;;;;;;;-147.63;100.00;58384.75;5064232;28;20032;-44
2024/01/20 10:21:03;;;;;;;3.80;1.88;;;;;;;-147.63;100.00;58384.75;5078699;28;20589;-42
2024/01/20 10:23:28;;;;;;;8.25;2.50;;;;;;;-147.63;100.00;58384.75;5081426;28;20028;-44
2024/01/20 10:26:04;;;;;;;6.22;2.22;;;;;;;-147.63;100.00;58384.75;5077946;28;20025;-44
2024/01/20 10:28:30;;;;;;;10.38;2.20;;;;;;;-147.63;100.00;58384.75;5076659;28;20036;-44
2024/01/20 10:30:56;;;;;;;8.98;2.80;;;;;;;-147.63;100.00;58384.75;5075494;28;20474;-46
2024/01/20 10:33:22;;;;;;;2.65;2.22;;;;;;;-147.63;100.00;58384.75;5074247;28;20061;-46
2024/01/20 10:35:48;;;;;;;3.30;2.28;;;;;;;-147.63;100.00;58384.75;5074899;28;20521;-49
2024/01/20 10:38:18;;;;;;;3.38;2.53;;;;;;;-147.63;100.00;58384.75;5058124;28;20030;-48
2024/01/20 10:40:45;;;;;;;;;;;;;;;-147.63;100.00;58384.75;5077235;28;20456;-45
2024/01/20 10:43:14;;;;;;;3.22;1.83;;;;;;;-147.63;100.00;58384.75;5064358;28;19919;-45
2024/01/20 10:45:52;;;;;;;2.63;2.00;;;;;;;-147.63;100.00;58384.75;5079153;28;20051;-53
2024/01/20 10:48:20;;;;;;;2.60;2.05;;;;;;;-147.63;100.00;58384.75;5080691;28;20116;-49
2024/01/20 10:50:53;;;;;;;4.57;2.10;;;;;;;-147.63;100.00;58384.75;5064650;28;20063;-43
2024/01/20 10:53:19;;;;;;;4.47;2.10;;;;;;;-147.63;100.00;58384.75;5073124;28;20498;-51
2024/01/20 10:55:46;;;;;;;4.20;2.13;;;;;;;-147.63;100.00;58384.75;5071657;28;20070;-49
2024/01/20 10:58:12;;;;;;;2.92;2.00;;;;;;;-147.63;100.00;58384.75;5080871;28;20444;-49
2024/01/20 11:00:39;;;;;;;2.78;2.28;;;;;;;-147.63;100.00;58384.75;5065521;28;20046;-49
2024/01/20 11:03:05;;;;;;;4.13;2.22;;;;;;;-147.63;100.00;58384.75;5081853;28;20038;-42